Time;durP1;ratioP1;P1;durP2;ratioP2;P2;SDS_P1;SDS_P2;PMS_P1;PMS_P2;Temp;Humidity;BMP_temperature;BMP_pressure;BME280_temperature;BME280_humidity;BME280_pressure;Samples;Min_cycle;Max_cycle;Signal;HPM_P1;HPM_P2
2024/02/28 00:01:51;;;;;;;13.02;4.25;;;5.50;99.90;;;;;;4997128;28;20078;-69
2024/02/28 00:04:17;;;;;;;10.48;5.25;;;5.50;99.90;;;;;;5001145;28;20072;-69
2024/02/28 00:06:43;;;;;;;7.70;3.75;;;5.40;99.90;;;;;;4994738;28;20038;-70
2024/02/28 00:09:11;;;;;;;8.50;4.25;;;5.40;99.90;;;;;;5010028;28;20026;-70
2024/02/28 00:11:42;;;;;;;8.35;5.32;;;5.40;99.90;;;;;;5003302;28;20442;-70
2024/02/28 00:14:08;;;;;;;8.50;4.97;;;5.40;99.90;;;;;;5002014;28;20057;-70
2024/02/28 00:16:33;;;;;;;9.60;5.50;;;5.40;99.90;;;;;;5003523;28;20475;-70
2024/02/28 00:18:59;;;;;;;9.50;4.78;;;5.30;99.90;;;;;;5015961;28;20046;-70
2024/02/28 00:21:25;;;;;;;13.85;5.75;;;5.30;99.90;;;;;;5004149;28;20451;-70
2024/02/28 00:23:50;;;;;;;12.93;5.05;;;5.30;99.90;;;;;;4984545;28;20526;-70
2024/02/28 00:26:16;;;;;;;8.10;4.00;;;5.20;99.90;;;;;;5001033;28;20154;-70
2024/02/28 00:28:42;;;;;;;13.07;5.85;;;5.20;99.90;;;;;;4999432;28;20026;-70
2024/02/28 00:31:08;;;;;;;11.32;4.88;;;5.10;99.90;;;;;;5000009;28;20468;-71
2024/02/28 00:33:33;;;;;;;6.60;3.60;;;5.10;99.90;;;;;;5011629;28;20117;-70
2024/02/28 00:35:59;;;;;;;7.57;4.43;;;5.10;99.90;;;;;;5015070;28;20042;-70
2024/02/28 00:38:25;;;;;;;6.18;3.45;;;5.00;99.90;;;;;;4999757;28;20038;-69
2024/02/28 00:40:50;;;;;;;8.82;4.47;;;5.00;99.90;;;;;;5002101;28;20035;-70
2024/02/28 00:43:16;;;;;;;9.38;4.00;;;5.00;99.90;;;;;;5015345;28;20112;-70
2024/02/28 00:45:44;;;;;;;14.50;4.15;;;5.00;99.90;;;;;;4997577;28;20026;-71
2024/02/28 00:48:10;;;;;;;13.88;4.65;;;5.00;99.90;;;;;;5003360;28;20034;-70
2024/02/28 00:50:36;;;;;;;7.90;4.00;;;5.00;99.90;;;;;;5006189;28;20134;-70
2024/02/28 00:53:02;;;;;;;9.98;5.18;;;4.90;99.90;;;;;;5002226;28;20030;-70
2024/02/28 00:55:30;;;;;;;12.68;5.22;;;4.90;99.90;;;;;;5007612;28;20036;-70
2024/02/28 00:57:56;;;;;;;11.07;4.85;;;4.90;99.90;;;;;;5006937;28;20046;-70
2024/02/28 01:00:22;;;;;;;5.72;3.85;;;4.80;99.90;;;;;;5000928;28;20042;-70
2024/02/28 01:02:48;;;;;;;8.55;5.07;;;4.80;99.90;;;;;;5002497;28;20064;-70
2024/02/28 01:05:13;;;;;;;10.85;5.20;;;4.80;99.90;;;;;;5018571;28;20026;-70
2024/02/28 01:07:39;;;;;;;9.00;4.38;;;4.70;99.90;;;;;;4998552;28;20102;-70
2024/02/28 01:10:07;;;;;;;10.93;3.78;;;4.70;99.90;;;;;;5017713;28;20502;-69
2024/02/28 01:12:32;;;;;;;7.57;4.03;;;4.70;99.90;;;;;;4996544;28;20056;-70
2024/02/28 01:14:58;;;;;;;8.25;4.85;;;4.60;99.90;;;;;;5016061;28;20642;-70
2024/02/28 01:17:24;;;;;;;9.82;5.68;;;4.60;99.90;;;;;;5007685;23;20047;-69
2024/02/28 01:19:50;;;;;;;11.55;5.13;;;4.60;99.90;;;;;;5005810;28;20030;-69
2024/02/28 01:22:16;;;;;;;14.70;4.03;;;4.50;99.90;;;;;;4994389;28;20022;-69
2024/02/28 01:24:41;;;;;;;12.80;5.05;;;4.50;99.90;;;;;;5003529;28;20034;-69
2024/02/28 01:27:07;;;;;;;6.38;3.92;;;4.50;99.90;;;;;;5016087;28;20163;-69
2024/02/28 01:29:33;;;;;;;9.40;4.90;;;4.50;99.90;;;;;;5004453;28;20040;-69
2024/02/28 01:31:58;;;;;;;8.48;4.82;;;4.50;99.90;;;;;;5013386;28;20038;-69
2024/02/28 01:34:24;;;;;;;11.02;5.90;;;4.40;99.90;;;;;;5008061;28;20041;-69
2024/02/28 01:36:50;;;;;;;13.00;5.15;;;4.40;99.90;;;;;;5004310;28;20082;-70
2024/02/28 01:39:15;;;;;;;7.80;4.93;;;4.30;99.90;;;;;;5002607;28;20048;-70
2024/02/28 01:41:43;;;;;;;8.63;4.53;;;4.30;99.90;;;;;;5003139;28;20022;-70
2024/02/28 01:44:08;;;;;;;5.13;3.55;;;4.20;99.90;;;;;;5006228;28;20059;-70
2024/02/28 01:46:35;;;;;;;9.75;4.43;;;4.20;99.90;;;;;;5000756;28;20104;-70
2024/02/28 01:49:01;;;;;;;8.27;6.00;;;4.20;99.90;;;;;;4998157;28;20062;-70
2024/02/28 01:51:27;;;;;;;10.75;5.13;;;4.20;99.90;;;;;;5003239;28;20031;-70
2024/02/28 01:53:53;;;;;;;9.55;5.47;;;4.20;99.90;;;;;;5007014;28;20025;-70
2024/02/28 01:56:22;;;;;;;11.20;5.82;;;4.10;99.90;;;;;;5002679;28;20065;-70
2024/02/28 01:58:49;;;;;;;7.78;5.50;;;4.10;99.90;;;;;;5007962;28;20053;-70
2024/02/28 02:01:15;;;;;;;7.90;4.70;;;4.10;99.90;;;;;;4999274;28;20045;-69
2024/02/28 02:03:43;;;;;;;7.10;4.68;;;4.00;99.90;;;;;;5003962;28;20037;-70
2024/02/28 02:06:09;;;;;;;8.75;5.45;;;4.10;99.90;;;;;;4987397;28;20022;-70
2024/02/28 02:08:38;;;;;;;15.65;5.55;;;4.10;99.90;;;;;;5004763;28;20454;-70
2024/02/28 02:11:06;;;;;;;11.52;7.05;;;4.10;99.90;;;;;;4998784;28;20023;-70
2024/02/28 02:13:32;;;;;;;14.82;5.50;;;4.00;99.90;;;;;;5007296;28;20108;-70
2024/02/28 02:15:58;;;;;;;7.75;4.68;;;4.00;99.90;;;;;;5008052;28;20109;-70
2024/02/28 02:18:23;;;;;;;18.85;8.27;;;4.00;99.90;;;;;;5006259;28;20165;-70
2024/02/28 02:21:04;;;;;;;11.52;4.90;;;4.00;99.90;;;;;;5015705;28;20057;-70
2024/02/28 02:23:31;;;;;;;24.00;6.25;;;4.00;99.90;;;;;;5004096;28;20049;-69
2024/02/28 02:25:57;;;;;;;7.97;5.97;;;4.00;99.90;;;;;;5008812;28;20045;-69
2024/02/28 02:28:23;;;;;;;10.50;5.50;;;4.00;99.90;;;;;;5004735;28;20026;-69
2024/02/28 02:30:49;;;;;;;10.15;5.30;;;3.90;99.90;;;;;;5009259;28;20030;-69
2024/02/28 02:33:14;;;;;;;13.85;5.95;;;4.00;99.90;;;;;;4999402;28;20052;-69
2024/02/28 02:35:40;;;;;;;11.30;5.85;;;4.00;99.90;;;;;;5021002;28;20037;-69
2024/02/28 02:38:06;;;;;;;12.25;5.38;;;4.00;99.90;;;;;;5020528;28;20121;-70
2024/02/28 02:40:32;;;;;;;17.60;5.88;;;3.90;99.90;;;;;;5000380;28;20034;-70
2024/02/28 02:42:58;;;;;;;12.25;6.60;;;3.90;99.90;;;;;;5006136;28;20045;-70
2024/02/28 02:45:23;;;;;;;15.90;5.47;;;3.90;99.90;;;;;;5017037;28;20109;-70
2024/02/28 02:47:49;;;;;;;11.13;6.25;;;3.90;99.90;;;;;;5006449;28;20057;-70
2024/02/28 02:50:15;;;;;;;7.63;4.70;;;3.80;99.90;;;;;;4989778;28;20038;-70
2024/02/28 02:52:41;;;;;;;9.93;5.43;;;3.70;99.90;;;;;;5012976;28;20112;-69
2024/02/28 02:55:07;;;;;;;11.93;7.07;;;3.70;99.90;;;;;;5008019;28;20130;-70
2024/02/28 02:57:33;;;;;;;19.13;8.38;;;3.70;99.90;;;;;;5011439;28;20057;-70
2024/02/28 02:59:59;;;;;;;6.15;3.50;;;3.70;99.90;;;;;;5021085;28;20030;-70
2024/02/28 03:02:25;;;;;;;11.30;5.55;;;3.70;99.90;;;;;;5001408;28;20034;-70
2024/02/28 03:04:50;;;;;;;15.48;6.60;;;3.70;99.90;;;;;;5010081;28;20034;-69
2024/02/28 03:07:16;;;;;;;13.55;5.55;;;3.70;99.90;;;;;;5009619;28;20105;-69
2024/02/28 03:09:42;;;;;;;14.65;6.45;;;3.70;99.90;;;;;;5011914;28;20026;-69
2024/02/28 03:12:08;;;;;;;9.60;5.35;;;3.60;99.90;;;;;;5010324;28;20034;-69
2024/02/28 03:14:35;;;;;;;9.07;5.78;;;3.60;99.90;;;;;;5008020;28;20030;-69
2024/02/28 03:17:01;;;;;;;10.52;5.97;;;3.60;99.90;;;;;;5009217;28;20116;-69
2024/02/28 03:19:27;;;;;;;9.50;5.10;;;3.50;99.90;;;;;;5017108;28;20121;-70
2024/02/28 03:21:53;;;;;;;14.77;5.70;;;3.60;99.90;;;;;;4993198;28;20026;-70
2024/02/28 03:24:19;;;;;;;11.98;6.63;;;3.50;99.90;;;;;;5001298;28;20451;-70
2024/02/28 03:26:45;;;;;;;8.30;5.95;;;3.50;99.90;;;;;;5019270;28;20060;-70
2024/02/28 03:29:10;;;;;;;15.18;5.85;;;3.50;99.90;;;;;;5008740;28;20072;-70
2024/02/28 03:31:36;;;;;;;14.50;6.22;;;3.50;99.90;;;;;;5007595;28;20034;-70
2024/02/28 03:34:02;;;;;;;13.50;6.38;;;3.50;99.90;;;;;;5006293;28;20040;-70
2024/02/28 03:36:29;;;;;;;13.32;7.07;;;3.40;99.90;;;;;;5005876;28;20026;-70
2024/02/28 03:38:55;;;;;;;12.98;5.93;;;3.40;99.90;;;;;;5009255;28;20088;-70
2024/02/28 03:41:20;;;;;;;13.65;6.57;;;3.30;99.90;;;;;;5000188;28;20034;-70
2024/02/28 03:43:46;;;;;;;16.92;7.25;;;3.30;99.90;;;;;;5005561;28;20502;-69
2024/02/28 03:46:12;;;;;;;9.40;5.55;;;3.20;99.90;;;;;;5001402;28;20018;-69
2024/02/28 03:48:38;;;;;;;13.02;7.10;;;3.20;99.90;;;;;;5004736;28;20053;-69
2024/02/28 03:51:04;;;;;;;10.48;5.55;;;3.20;99.90;;;;;;5017769;28;20105;-69
2024/02/28 03:53:30;;;;;;;9.50;7.20;;;3.20;99.90;;;;;;5000535;28;20023;-69
2024/02/28 03:55:56;;;;;;;11.25;6.35;;;3.20;99.90;;;;;;5020474;28;20394;-69
2024/02/28 03:58:22;;;;;;;9.90;6.35;;;3.10;99.90;;;;;;5001423;28;20084;-70
2024/02/28 04:00:48;;;;;;;9.07;5.18;;;3.10;99.90;;;;;;5007280;28;20029;-70
2024/02/28 04:03:14;;;;;;;14.45;6.32;;;3.00;99.90;;;;;;4996909;28;20049;-70
2024/02/28 04:05:41;;;;;;;13.43;6.43;;;3.10;99.90;;;;;;5008286;28;20360;-70
2024/02/28 04:08:07;;;;;;;17.38;6.25;;;3.10;99.90;;;;;;4998020;28;20109;-70
2024/02/28 04:10:33;;;;;;;13.60;8.10;;;3.10;99.90;;;;;;5001888;28;20539;-70
2024/02/28 04:12:59;;;;;;;8.63;5.40;;;3.10;99.90;;;;;;5000688;28;20526;-71
2024/02/28 04:15:26;;;;;;;13.85;6.22;;;3.00;99.90;;;;;;5007433;28;20034;-70
2024/02/28 04:17:52;;;;;;;13.40;6.50;;;3.00;99.90;;;;;;5012180;28;20037;-70
2024/02/28 04:20:18;;;;;;;16.02;6.45;;;3.00;99.90;;;;;;5004690;28;20033;-70
2024/02/28 04:22:43;;;;;;;14.95;5.95;;;3.00;99.90;;;;;;5003281;28;20375;-69
2024/02/28 04:25:10;;;;;;;12.23;4.18;;;2.90;99.90;;;;;;5008379;28;20062;-69
2024/02/28 04:27:37;;;;;;;10.88;6.72;;;2.90;99.90;;;;;;4999529;28;20030;-70
2024/02/28 04:30:04;;;;;;;9.18;6.57;;;3.00;99.90;;;;;;5010526;28;20030;-70
2024/02/28 04:32:30;;;;;;;10.98;4.85;;;2.90;99.90;;;;;;5012836;28;20042;-70
2024/02/28 04:34:55;;;;;;;8.75;4.78;;;2.90;99.90;;;;;;5006391;28;20379;-70
2024/02/28 04:37:22;;;;;;;8.48;5.55;;;2.90;99.90;;;;;;5002174;28;20064;-70
2024/02/28 04:39:47;;;;;;;25.67;6.78;;;2.80;99.90;;;;;;5003849;28;20023;-69
2024/02/28 04:42:15;;;;;;;12.32;6.22;;;2.80;99.90;;;;;;5007918;28;20032;-69
2024/02/28 04:44:41;;;;;;;9.00;5.88;;;2.80;99.90;;;;;;5016210;28;20033;-70
2024/02/28 04:47:07;;;;;;;10.50;6.63;;;2.80;99.90;;;;;;5019996;28;20029;-70
2024/02/28 04:49:36;;;;;;;13.68;6.28;;;2.80;99.90;;;;;;5003353;28;20022;-70
2024/02/28 04:52:02;;;;;;;13.20;7.60;;;2.80;99.90;;;;;;5002800;28;20080;-70
2024/02/28 04:54:28;;;;;;;16.80;7.45;;;2.80;99.90;;;;;;5000682;28;20128;-70
2024/02/28 04:56:53;;;;;;;15.40;7.72;;;2.80;99.90;;;;;;5000579;28;20097;-70
2024/02/28 04:59:19;;;;;;;18.25;7.72;;;2.70;99.90;;;;;;5014295;28;20034;-70
2024/02/28 05:01:45;;;;;;;11.73;5.47;;;2.80;99.90;;;;;;5019599;28;20037;-70
2024/02/28 05:04:14;;;;;;;10.02;5.85;;;2.80;99.90;;;;;;4997851;28;20034;-70
2024/02/28 05:06:40;;;;;;;8.13;4.25;;;2.70;99.90;;;;;;5009385;28;20026;-70
2024/02/28 05:09:06;;;;;;;11.57;6.82;;;2.70;99.90;;;;;;5010472;28;20084;-69
2024/02/28 05:11:32;;;;;;;14.43;6.53;;;2.70;99.90;;;;;;5021054;28;20029;-69
2024/02/28 05:14:01;;;;;;;12.00;6.15;;;2.70;99.90;;;;;;4999892;28;20049;-70
2024/02/28 05:16:26;;;;;;;11.40;6.90;;;2.60;99.90;;;;;;4986031;28;20025;-71
2024/02/28 05:18:52;;;;;;;14.25;8.27;;;2.60;99.90;;;;;;5015547;28;20492;-70
2024/02/28 05:21:18;;;;;;;14.38;6.78;;;2.50;99.90;;;;;;4993178;28;20038;-70
2024/02/28 05:23:44;;;;;;;10.75;5.32;;;2.50;99.90;;;;;;4993268;28;20060;-70
2024/02/28 05:26:09;;;;;;;11.30;5.68;;;2.50;99.90;;;;;;4994027;28;20034;-70
2024/02/28 05:28:35;;;;;;;9.07;4.90;;;2.50;99.90;;;;;;5000059;28;20041;-70
2024/02/28 05:31:22;;;;;;;10.07;7.13;;;2.50;99.90;;;;;;5000212;28;20110;-71
2024/02/28 05:33:50;;;;;;;6.05;4.50;;;2.60;99.90;;;;;;4989265;28;20030;-70
2024/02/28 05:36:17;;;;;;;12.45;6.68;;;2.60;99.90;;;;;;4986359;28;20391;-70
2024/02/28 05:38:43;;;;;;;18.60;7.20;;;2.60;99.90;;;;;;4983367;28;20109;-69
2024/02/28 05:41:09;;;;;;;15.70;7.65;;;2.50;99.90;;;;;;4980404;28;20152;-70
2024/02/28 05:43:37;;;;;;;15.73;8.88;;;2.50;99.90;;;;;;4977723;28;20034;-71
2024/02/28 05:46:03;;;;;;;17.42;8.23;;;2.50;99.90;;;;;;4979901;28;20454;-70
2024/02/28 05:48:29;;;;;;;11.95;8.00;;;2.50;99.90;;;;;;4979774;28;20054;-69
2024/02/28 05:50:54;;;;;;;10.85;6.07;;;2.50;99.90;;;;;;4979039;28;20104;-70
2024/02/28 05:53:20;;;;;;;12.45;7.93;;;2.50;99.90;;;;;;4982855;28;20341;-71
2024/02/28 05:55:46;;;;;;;9.25;6.75;;;2.50;99.90;;;;;;4988118;28;20041;-70
2024/02/28 05:58:13;;;;;;;14.18;5.55;;;2.40;99.90;;;;;;5007487;28;20026;-70
2024/02/28 06:00:39;;;;;;;15.35;7.55;;;2.30;99.90;;;;;;5017697;28;20029;-70
2024/02/28 06:03:05;;;;;;;16.23;6.85;;;2.30;99.90;;;;;;5014940;28;20465;-69
2024/02/28 06:05:31;;;;;;;12.88;7.32;;;2.20;99.90;;;;;;5005567;28;20447;-70
2024/02/28 06:07:56;;;;;;;11.15;7.13;;;2.20;99.90;;;;;;4998767;28;20027;-70
2024/02/28 06:10:22;;;;;;;13.25;7.28;;;2.20;99.90;;;;;;4995625;28;20102;-71
2024/02/28 06:12:48;;;;;;;9.13;6.38;;;2.10;99.90;;;;;;4990540;28;20035;-71
2024/02/28 06:15:14;;;;;;;20.52;10.80;;;2.10;99.90;;;;;;4990065;28;20494;-71
2024/02/28 06:17:39;;;;;;;11.32;6.80;;;2.10;99.90;;;;;;4996128;28;20044;-69
2024/02/28 06:20:06;;;;;;;7.88;4.80;;;2.10;99.90;;;;;;4995225;28;20479;-70
2024/02/28 06:22:32;;;;;;;16.45;6.35;;;2.00;99.90;;;;;;5003425;28;20024;-70
2024/02/28 06:24:58;;;;;;;7.38;4.50;;;2.10;99.90;;;;;;5001821;28;20692;-70
2024/02/28 06:27:23;;;;;;;14.30;5.63;;;2.10;99.90;;;;;;5011323;28;20040;-70
2024/02/28 06:29:49;;;;;;;8.15;5.88;;;2.10;99.90;;;;;;4988357;28;20072;-70
2024/02/28 06:32:15;;;;;;;16.63;6.15;;;2.20;99.90;;;;;;4991417;28;20042;-70
2024/02/28 06:34:41;;;;;;;9.85;4.75;;;2.20;99.90;;;;;;5006352;28;20042;-69
2024/02/28 06:37:07;;;;;;;10.32;6.68;;;2.20;99.90;;;;;;4990096;28;20042;-70
2024/02/28 06:39:33;;;;;;;12.23;6.63;;;2.20;99.90;;;;;;5013888;28;20024;-69
2024/02/28 06:41:59;;;;;;;19.35;6.43;;;2.20;99.90;;;;;;4991935;28;20030;-69
2024/02/28 06:44:25;;;;;;;12.63;7.80;;;2.30;99.90;;;;;;4991633;28;20045;-70
2024/02/28 06:46:50;;;;;;;10.48;6.47;;;2.40;99.90;;;;;;4991515;28;20030;-70
2024/02/28 06:49:16;;;;;;;8.43;7.30;;;2.30;99.90;;;;;;5005147;28;20034;-70
2024/02/28 06:51:47;;;;;;;13.23;7.90;;;2.40;99.90;;;;;;4987364;28;20093;-69
2024/02/28 06:54:12;;;;;;;11.53;7.30;;;2.50;99.90;;;;;;4991249;28;20098;-70
2024/02/28 06:56:38;;;;;;;9.93;5.25;;;2.60;99.90;;;;;;4981804;28;20519;-70
2024/02/28 06:59:05;;;;;;;15.13;7.47;;;2.50;99.90;;;;;;5006597;28;20117;-69
2024/02/28 07:01:31;;;;;;;14.90;6.85;;;2.60;99.90;;;;;;4986583;28;20029;-69
2024/02/28 07:03:56;;;;;;;9.80;6.55;;;2.60;99.90;;;;;;4991441;28;20334;-70
2024/02/28 07:06:22;;;;;;;18.30;7.63;;;2.60;99.90;;;;;;4985385;28;20045;-69
2024/02/28 07:08:48;;;;;;;11.07;6.43;;;2.70;99.90;;;;;;4977870;28;20031;-70
2024/02/28 07:11:15;;;;;;;10.57;5.68;;;2.70;99.90;;;;;;4977435;28;20534;-69
2024/02/28 07:13:41;;;;;;;9.20;6.10;;;2.80;99.90;;;;;;4977864;28;20073;-52
2024/02/28 07:16:07;;;;;;;11.60;7.20;;;2.80;99.90;;;;;;4977935;28;20134;-54
2024/02/28 07:18:33;;;;;;;10.23;7.13;;;2.80;99.90;;;;;;5003796;23;20112;-53
2024/02/28 07:20:59;;;;;;;13.75;5.15;;;3.10;99.90;;;;;;4995136;28;20031;-55
2024/02/28 07:23:25;;;;;;;15.55;7.18;;;3.20;99.90;;;;;;4990364;28;20053;-54
2024/02/28 07:25:51;;;;;;;18.58;7.40;;;3.90;99.90;;;;;;4995912;28;20026;-53
2024/02/28 07:28:17;;;;;;;17.10;9.43;;;4.70;99.90;;;;;;4995440;28;20032;-50
2024/02/28 07:30:45;;;;;;;11.43;7.20;;;4.50;99.90;;;;;;4996722;28;20037;-69
2024/02/28 07:33:11;;;;;;;19.05;8.45;;;4.50;99.90;;;;;;4996504;28;20375;-69
2024/02/28 07:35:47;;;;;;;17.00;7.10;;;4.40;99.90;;;;;;4998417;28;20041;-69
2024/02/28 07:38:13;;;;;;;14.75;7.03;;;4.20;99.90;;;;;;4997150;28;20026;-69
2024/02/28 07:40:38;;;;;;;18.20;8.63;;;4.10;99.90;;;;;;4999373;28;20030;-69
2024/02/28 07:43:04;;;;;;;25.33;9.70;;;4.00;99.90;;;;;;4988435;28;20033;-69
2024/02/28 07:45:30;;;;;;;14.52;7.80;;;4.00;99.90;;;;;;5009550;28;20030;-67
2024/02/28 07:47:56;;;;;;;13.60;6.75;;;4.00;99.90;;;;;;4990101;28;20035;-68
2024/02/28 07:50:22;;;;;;;12.07;5.25;;;3.90;99.90;;;;;;5010089;28;20041;-68
2024/02/28 07:52:47;;;;;;;12.52;5.07;;;3.90;99.90;;;;;;4989587;28;20045;-69
2024/02/28 07:55:13;;;;;;;13.85;7.50;;;3.80;99.90;;;;;;5002509;28;20034;-68
2024/02/28 07:57:39;;;;;;;14.15;7.57;;;3.80;99.90;;;;;;4990449;28;20118;-69
2024/02/28 08:00:06;;;;;;;11.32;6.32;;;3.90;99.90;;;;;;4986541;28;20115;-69
2024/02/28 08:02:31;;;;;;;18.23;7.68;;;4.00;99.90;;;;;;5005681;28;20412;-70
2024/02/28 08:04:57;;;;;;;19.65;8.82;;;4.00;99.90;;;;;;5007850;28;20022;-69
2024/02/28 08:07:23;;;;;;;12.63;7.47;;;4.10;99.90;;;;;;4992087;28;20041;-69
2024/02/28 08:09:49;;;;;;;18.77;10.43;;;4.20;99.90;;;;;;5006959;28;20538;-68
2024/02/28 08:12:20;;;;;;;13.80;6.72;;;4.20;99.90;;;;;;4995557;28;20028;-68
2024/02/28 08:14:45;;;;;;;14.23;6.88;;;4.30;99.90;;;;;;4991455;28;20061;-67
2024/02/28 08:17:13;;;;;;;12.80;5.70;;;4.30;99.90;;;;;;4993040;28;20487;-68
2024/02/28 08:19:42;;;;;;;24.60;6.95;;;4.50;99.90;;;;;;4990834;28;20044;-68
2024/02/28 08:22:07;;;;;;;10.93;6.10;;;4.50;99.90;;;;;;5000057;28;20110;-68
2024/02/28 08:24:33;;;;;;;14.60;8.32;;;4.60;99.90;;;;;;5001171;28;20105;-69
2024/02/28 08:26:59;;;;;;;16.25;8.05;;;4.70;99.90;;;;;;4985635;28;20047;-69
2024/02/28 08:29:24;;;;;;;17.10;7.45;;;4.80;99.90;;;;;;4989431;28;20069;-69
2024/02/28 08:31:51;;;;;;;14.60;6.85;;;4.90;99.90;;;;;;4994066;28;20041;-69
2024/02/28 08:34:17;;;;;;;11.70;5.80;;;4.80;99.90;;;;;;4988758;28;20030;-69
2024/02/28 08:36:46;;;;;;;15.13;7.85;;;4.90;99.90;;;;;;5009301;28;20022;-68
2024/02/28 08:39:12;;;;;;;20.92;8.18;;;4.90;99.90;;;;;;4991142;28;20023;-68
2024/02/28 08:41:37;;;;;;;13.57;7.72;;;4.90;99.90;;;;;;5008808;28;20394;-68
2024/02/28 08:44:03;;;;;;;15.13;8.55;;;4.90;99.90;;;;;;4991796;28;20026;-68
2024/02/28 08:46:29;;;;;;;20.88;8.07;;;5.00;99.90;;;;;;4993671;28;20080;-68
2024/02/28 08:48:55;;;;;;;17.65;6.75;;;5.10;99.90;;;;;;4987505;28;20022;-68
2024/02/28 08:51:21;;;;;;;14.13;7.90;;;5.20;99.90;;;;;;4993739;28;20034;-69
2024/02/28 08:53:47;;;;;;;18.98;7.45;;;5.20;99.90;;;;;;4988381;28;20030;-69
2024/02/28 08:56:13;;;;;;;23.35;9.27;;;5.30;99.90;;;;;;4993407;28;20391;-68
2024/02/28 08:58:38;;;;;;;13.48;8.30;;;5.40;99.90;;;;;;5003539;28;20022;-68
2024/02/28 09:01:04;;;;;;;11.57;6.07;;;5.50;99.90;;;;;;4993754;28;20379;-69
2024/02/28 09:03:30;;;;;;;14.95;6.10;;;5.60;99.90;;;;;;4988742;28;20053;-68
2024/02/28 09:05:56;;;;;;;16.20;7.32;;;5.70;99.90;;;;;;4992865;28;20023;-68
2024/02/28 09:08:21;;;;;;;16.17;7.05;;;5.70;99.90;;;;;;5003695;28;20046;-68
2024/02/28 09:10:47;;;;;;;18.13;7.72;;;5.90;99.90;;;;;;4993058;28;20092;-68
2024/02/28 09:13:13;;;;;;;16.98;6.93;;;6.00;99.90;;;;;;5003465;28;20034;-67
2024/02/28 09:15:39;;;;;;;16.10;7.53;;;6.10;99.90;;;;;;4993183;28;20136;-69
2024/02/28 09:18:05;;;;;;;18.48;8.07;;;6.20;99.90;;;;;;4988121;28;20100;-69
2024/02/28 09:20:31;;;;;;;15.98;7.38;;;6.20;99.90;;;;;;4993305;28;20030;-69
2024/02/28 09:22:57;;;;;;;20.27;8.13;;;6.30;99.90;;;;;;4987827;28;20394;-68
2024/02/28 09:25:22;;;;;;;15.55;7.32;;;6.50;99.90;;;;;;5008159;28;20463;-68
2024/02/28 09:27:51;;;;;;;22.00;7.68;;;6.70;99.90;;;;;;4989305;28;20511;-68
2024/02/28 09:30:18;;;;;;;21.13;8.63;;;6.70;99.90;;;;;;5014080;28;20034;-68
2024/02/28 09:32:44;;;;;;;12.90;6.70;;;6.80;99.90;;;;;;5003471;28;20031;-69
2024/02/28 09:35:10;;;;;;;9.30;6.13;;;6.60;99.90;;;;;;5000305;28;20022;-68
2024/02/28 09:37:37;;;;;;;21.67;8.70;;;6.80;99.90;;;;;;4988165;28;20122;-69
2024/02/28 09:40:05;;;;;;;15.27;7.22;;;6.80;99.90;;;;;;4990787;28;20386;-68
2024/02/28 09:42:31;;;;;;;16.90;7.65;;;6.90;99.90;;;;;;4987939;28;20035;-68
2024/02/28 09:45:01;;;;;;;18.08;6.57;;;7.10;99.90;;;;;;5005963;28;20050;-68
2024/02/28 09:47:27;;;;;;;14.63;6.63;;;7.30;99.90;;;;;;5004445;28;20034;-68
2024/02/28 09:49:56;;;;;;;16.23;6.63;;;7.60;99.90;;;;;;5005798;28;20113;-69
2024/02/28 09:52:24;;;;;;;12.68;6.22;;;7.80;99.90;;;;;;4997264;28;20608;-68
2024/02/28 09:54:50;;;;;;;12.52;6.13;;;8.20;99.90;;;;;;5004481;28;20116;-68
2024/02/28 09:57:17;;;;;;;20.42;8.85;;;8.50;99.90;;;;;;4989686;28;20194;-68
2024/02/28 09:59:43;;;;;;;19.23;7.90;;;8.30;99.90;;;;;;5004250;28;20368;-69
2024/02/28 10:02:11;;;;;;;16.75;7.60;;;8.60;99.90;;;;;;4990978;28;20038;-67
2024/02/28 10:04:37;;;;;;;14.60;7.65;;;8.80;99.90;;;;;;4974804;28;20029;-68
2024/02/28 10:07:13;;;;;;;15.45;6.68;;;8.90;99.90;;;;;;5008672;28;20061;-69
2024/02/28 10:09:43;;;;;;;18.48;7.38;;;9.30;99.90;;;;;;4973064;28;20518;-68
2024/02/28 10:12:09;;;;;;;15.20;6.72;;;9.60;99.90;;;;;;4993138;28;20056;-68
2024/02/28 10:14:35;;;;;;;17.52;6.53;;;9.80;99.90;;;;;;4996695;28;20029;-69
2024/02/28 10:17:00;;;;;;;17.60;6.82;;;10.00;99.90;;;;;;5009244;28;20068;-68
2024/02/28 10:19:26;;;;;;;19.50;7.53;;;9.90;99.90;;;;;;4988062;28;20053;-68
2024/02/28 10:21:52;;;;;;;13.00;6.40;;;10.20;99.90;;;;;;5009409;28;20034;-68
2024/02/28 10:24:18;;;;;;;17.75;7.40;;;10.20;99.90;;;;;;4988066;28;20034;-68
2024/02/28 10:26:55;;;;;;;22.20;8.07;;;10.20;99.90;;;;;;4992066;28;20049;-68
2024/02/28 10:29:23;;;;;;;10.95;6.68;;;10.40;99.90;;;;;;5002937;28;20186;-68
2024/02/28 10:31:49;;;;;;;14.57;7.22;;;10.30;99.90;;;;;;4986618;28;20078;-68
2024/02/28 10:34:17;;;;;;;21.58;6.95;;;10.00;99.90;;;;;;5017166;28;20062;-68
2024/02/28 10:36:45;;;;;;;11.65;7.00;;;9.70;99.90;;;;;;4989736;28;20033;-68
2024/02/28 10:39:14;;;;;;;18.17;7.50;;;9.60;99.90;;;;;;4998959;28;20039;-68
2024/02/28 10:41:41;;;;;;;11.88;6.03;;;10.10;99.90;;;;;;5012144;28;20034;-68
2024/02/28 10:44:12;;;;;;;25.92;9.88;;;10.60;99.90;;;;;;4983966;28;20116;-68
2024/02/28 10:46:39;;;;;;;18.80;6.97;;;10.60;99.90;;;;;;4995762;28;20046;-68
2024/02/28 10:49:06;;;;;;;15.98;7.47;;;9.70;99.90;;;;;;4990680;28;20045;-69
2024/02/28 10:51:38;;;;;;;14.07;7.00;;;9.80;99.90;;;;;;5005031;28;20565;-69
2024/02/28 10:54:13;;;;;;;14.27;6.95;;;9.50;99.90;;;;;;5017567;28;20173;-69
2024/02/28 10:56:41;;;;;;;16.88;7.45;;;10.30;99.90;;;;;;5007748;28;20093;-69
2024/02/28 10:59:10;;;;;;;14.38;6.07;;;10.40;99.90;;;;;;4994173;28;20248;-69
2024/02/28 11:01:45;;;;;;;17.42;7.30;;;11.20;99.90;;;;;;4993562;28;20030;-69
2024/02/28 11:04:15;;;;;;;20.10;7.70;;;11.60;99.90;;;;;;4994010;28;20034;-69
2024/02/28 11:06:53;;;;;;;12.60;5.78;;;10.50;99.90;;;;;;4991667;28;20129;-69
2024/02/28 11:09:27;;;;;;;19.75;7.80;;;10.40;99.90;;;;;;5015900;28;20033;-69
2024/02/28 11:11:55;;;;;;;14.02;6.38;;;10.60;99.90;;;;;;5001047;28;20026;-69
2024/02/28 11:14:24;;;;;;;16.33;7.00;;;11.10;99.90;;;;;;5013269;28;20027;-69
2024/02/28 11:17:11;;;;;;;15.98;6.05;;;12.00;99.90;;;;;;4990156;28;20382;-69
2024/02/28 11:19:36;;;;;;;15.82;6.53;;;12.60;99.90;;;;;;4995320;28;20027;-69
2024/02/28 11:22:05;;;;;;;16.73;5.88;;;13.40;99.90;;;;;;4994641;28;20037;-70
2024/02/28 11:24:33;;;;;;;14.18;6.72;;;13.90;99.10;;;;;;4993693;28;20109;-70
2024/02/28 11:26:59;;;;;;;21.33;7.32;;;14.00;96.40;;;;;;5007016;28;20086;-70
2024/02/28 11:29:29;;;;;;;12.95;5.53;;;14.90;94.80;;;;;;4993864;28;20038;-70
2024/02/28 11:31:55;;;;;;;14.52;5.70;;;14.30;97.80;;;;;;5009247;28;20081;-70
2024/02/28 11:34:21;;;;;;;13.93;6.15;;;15.10;91.90;;;;;;4995031;28;20454;-70
2024/02/28 11:36:52;;;;;;;11.88;5.78;;;16.00;93.60;;;;;;5006983;28;20031;-70
2024/02/28 11:39:19;;;;;;;14.68;6.30;;;17.80;86.10;;;;;;5014102;28;20057;-70
2024/02/28 11:41:46;;;;;;;12.95;5.15;;;16.20;90.70;;;;;;4991443;28;20046;-70
2024/02/28 11:44:13;;;;;;;13.65;6.10;;;15.30;89.60;;;;;;4994609;28;20038;-70
2024/02/28 11:46:47;;;;;;;18.20;6.32;;;15.90;90.90;;;;;;5004232;28;20026;-70
2024/02/28 11:49:13;;;;;;;13.70;5.35;;;14.30;91.50;;;;;;4985741;28;20029;-69
2024/02/28 11:51:43;;;;;;;13.15;5.82;;;16.20;92.60;;;;;;4995542;28;20084;-69
2024/02/28 11:54:13;;;;;;;17.05;6.00;;;14.40;93.20;;;;;;4986364;28;20038;-70
2024/02/28 11:56:40;;;;;;;14.93;5.57;;;13.50;93.80;;;;;;4990601;28;20494;-70
2024/02/28 11:59:06;;;;;;;21.13;7.70;;;16.70;91.30;;;;;;4992847;28;20038;-70
2024/02/28 12:01:43;;;;;;;11.95;5.63;;;18.20;83.20;;;;;;4992864;28;20018;-70
2024/02/28 12:04:10;;;;;;;11.35;5.80;;;15.10;87.20;;;;;;5000550;28;20444;-70
2024/02/28 12:06:37;;;;;;;14.02;5.97;;;15.20;86.90;;;;;;5008655;28;20387;-70
2024/02/28 12:09:04;;;;;;;14.05;5.30;;;16.40;86.30;;;;;;4977676;28;20082;-70
2024/02/28 12:11:31;;;;;;;14.18;5.38;;;17.60;80.50;;;;;;4994995;28;20360;-69
2024/02/28 12:13:58;;;;;;;13.13;5.38;;;15.20;87.30;;;;;;5007032;28;20491;-69
2024/02/28 12:16:27;;;;;;;12.85;6.30;;;14.70;89.30;;;;;;4992180;28;20030;-69
2024/02/28 12:18:53;;;;;;;11.70;5.40;;;14.70;90.30;;;;;;4991918;28;20037;-69
2024/02/28 12:21:20;;;;;;;12.85;6.10;;;16.20;87.50;;;;;;5000537;28;20093;-69
2024/02/28 12:23:48;;;;;;;18.60;5.95;;;16.80;88.50;;;;;;4991191;28;20041;-70
2024/02/28 12:26:14;;;;;;;10.43;5.13;;;17.20;84.60;;;;;;5008485;28;20034;-70
2024/02/28 12:28:40;;;;;;;41.88;9.20;;;15.30;84.90;;;;;;4984031;28;20030;-70
2024/02/28 12:31:09;;;;;;;13.43;6.20;;;15.20;90.20;;;;;;4990191;28;20027;-65
2024/02/28 12:33:35;;;;;;;11.95;5.78;;;14.30;90.00;;;;;;4974150;28;20601;-60
2024/02/28 12:36:03;;;;;;;12.23;4.60;;;17.30;86.40;;;;;;4976247;28;20030;-60
2024/02/28 12:38:29;;;;;;;11.75;4.85;;;14.60;90.30;;;;;;4976208;28;20105;-57
2024/02/28 12:40:55;;;;;;;22.52;5.85;;;15.00;90.40;;;;;;4974010;28;20097;-61
2024/02/28 12:43:21;;;;;;;12.63;5.40;;;16.10;85.20;;;;;;4974335;28;20117;-54
2024/02/28 12:45:46;;;;;;;43.42;8.80;;;16.20;85.50;;;;;;4974005;28;20113;-53